sensor_id;sensor_type;location;lat;lon;timestamp;P1;durP1;ratioP1;P2;durP2;ratioP2
60241;SDS011;46103;52.076;113.488;2023-10-19T00:00:49;4.38;;;1.42;;
60241;SDS011;46103;52.076;113.488;2023-10-19T00:03:54;4.47;;;1.42;;
60241;SDS011;46103;52.076;113.488;2023-10-19T00:07:01;3.75;;;1.25;;
60241;SDS011;46103;52.076;113.488;2023-10-19T00:10:06;4.20;;;1.35;;
60241;SDS011;46103;52.076;113.488;2023-10-19T00:13:11;4.00;;;1.70;;
60241;SDS011;46103;52.076;113.488;2023-10-19T00:16:15;6.10;;;1.98;;
60241;SDS011;46103;52.076;113.488;2023-10-19T00:19:25;4.85;;;1.60;;
60241;SDS011;46103;52.076;113.488;2023-10-19T00:22:30;5.43;;;1.90;;
60241;SDS011;46103;52.076;113.488;2023-10-19T00:28:44;5.68;;;1.63;;
60241;SDS011;46103;52.076;113.488;2023-10-19T00:31:50;3.67;;;1.15;;
60241;SDS011;46103;52.076;113.488;2023-10-19T00:34:54;3.83;;;1.25;;
60241;SDS011;46103;52.076;113.488;2023-10-19T00:37:59;6.28;;;1.30;;
60241;SDS011;46103;52.076;113.488;2023-10-19T00:41:22;2.50;;;1.30;;
60241;SDS011;46103;52.076;113.488;2023-10-19T00:44:33;4.28;;;1.40;;
60241;SDS011;46103;52.076;113.488;2023-10-19T00:47:46;3.15;;;1.10;;
60241;SDS011;46103;52.076;113.488;2023-10-19T00:50:52;2.83;;;1.38;;
60241;SDS011;46103;52.076;113.488;2023-10-19T00:54:20;4.32;;;1.30;;
60241;SDS011;46103;52.076;113.488;2023-10-19T00:57:44;11.00;;;2.88;;
60241;SDS011;46103;52.076;113.488;2023-10-19T01:00:51;8.05;;;2.40;;
60241;SDS011;46103;52.076;113.488;2023-10-19T01:03:58;5.07;;;1.95;;
60241;SDS011;46103;52.076;113.488;2023-10-19T01:07:02;3.95;;;2.00;;
60241;SDS011;46103;52.076;113.488;2023-10-19T01:10:15;8.30;;;3.20;;
60241;SDS011;46103;52.076;113.488;2023-10-19T01:13:23;7.32;;;2.67;;
60241;SDS011;46103;52.076;113.488;2023-10-19T01:16:31;6.18;;;2.75;;
60241;SDS011;46103;52.076;113.488;2023-10-19T01:19:35;8.52;;;2.78;;
60241;SDS011;46103;52.076;113.488;2023-10-19T01:22:46;5.78;;;2.55;;
60241;SDS011;46103;52.076;113.488;2023-10-19T01:26:15;4.55;;;1.90;;
60241;SDS011;46103;52.076;113.488;2023-10-19T01:29:24;4.35;;;1.77;;
60241;SDS011;46103;52.076;113.488;2023-10-19T01:32:31;3.17;;;1.30;;
60241;SDS011;46103;52.076;113.488;2023-10-19T01:35:35;5.45;;;1.80;;
60241;SDS011;46103;52.076;113.488;2023-10-19T01:38:57;4.88;;;2.00;;
60241;SDS011;46103;52.076;113.488;2023-10-19T01:42:04;4.47;;;1.85;;
60241;SDS011;46103;52.076;113.488;2023-10-19T01:45:10;7.53;;;2.40;;
60241;SDS011;46103;52.076;113.488;2023-10-19T01:48:14;5.72;;;2.22;;
60241;SDS011;46103;52.076;113.488;2023-10-19T01:51:19;4.10;;;1.38;;
60241;SDS011;46103;52.076;113.488;2023-10-19T01:54:23;3.65;;;0.90;;
60241;SDS011;46103;52.076;113.488;2023-10-19T01:57:28;3.67;;;1.10;;
60241;SDS011;46103;52.076;113.488;2023-10-19T02:00:31;1.98;;;0.40;;
60241;SDS011;46103;52.076;113.488;2023-10-19T02:03:40;2.78;;;0.52;;
60241;SDS011;46103;52.076;113.488;2023-10-19T02:06:45;1.88;;;0.50;;
60241;SDS011;46103;52.076;113.488;2023-10-19T02:12:57;2.25;;;0.40;;
60241;SDS011;46103;52.076;113.488;2023-10-19T02:16:07;0.60;;;0.20;;
60241;SDS011;46103;52.076;113.488;2023-10-19T02:19:11;1.70;;;0.63;;
60241;SDS011;46103;52.076;113.488;2023-10-19T02:22:15;3.70;;;0.90;;
60241;SDS011;46103;52.076;113.488;2023-10-19T02:25:20;2.55;;;0.57;;
60241;SDS011;46103;52.076;113.488;2023-10-19T02:28:24;1.65;;;0.32;;
60241;SDS011;46103;52.076;113.488;2023-10-19T02:31:34;2.08;;;0.50;;
60241;SDS011;46103;52.076;113.488;2023-10-19T02:34:42;1.45;;;0.40;;
60241;SDS011;46103;52.076;113.488;2023-10-19T02:37:46;0.68;;;0.20;;
60241;SDS011;46103;52.076;113.488;2023-10-19T02:40:50;1.27;;;0.30;;
60241;SDS011;46103;52.076;113.488;2023-10-19T02:43:55;1.55;;;0.40;;
60241;SDS011;46103;52.076;113.488;2023-10-19T02:47:17;2.28;;;0.40;;
60241;SDS011;46103;52.076;113.488;2023-10-19T02:50:22;0.47;;;0.10;;
60241;SDS011;46103;52.076;113.488;2023-10-19T02:53:26;1.65;;;0.30;;
60241;SDS011;46103;52.076;113.488;2023-10-19T02:56:31;1.85;;;0.30;;
60241;SDS011;46103;52.076;113.488;2023-10-19T02:59:35;0.88;;;0.17;;
60241;SDS011;46103;52.076;113.488;2023-10-19T03:02:40;0.55;;;0.03;;
60241;SDS011;46103;52.076;113.488;2023-10-19T03:05:43;2.95;;;0.50;;
60241;SDS011;46103;52.076;113.488;2023-10-19T03:08:47;1.45;;;0.30;;
60241;SDS011;46103;52.076;113.488;2023-10-19T03:11:55;1.13;;;0.17;;
60241;SDS011;46103;52.076;113.488;2023-10-19T03:15:03;1.50;;;0.25;;
60241;SDS011;46103;52.076;113.488;2023-10-19T03:18:08;1.10;;;0.20;;
60241;SDS011;46103;52.076;113.488;2023-10-19T03:21:12;1.85;;;0.40;;
60241;SDS011;46103;52.076;113.488;2023-10-19T03:24:16;2.65;;;0.60;;
60241;SDS011;46103;52.076;113.488;2023-10-19T03:27:47;2.15;;;0.43;;
60241;SDS011;46103;52.076;113.488;2023-10-19T03:30:51;1.15;;;0.38;;
60241;SDS011;46103;52.076;113.488;2023-10-19T03:33:54;4.55;;;1.30;;
60241;SDS011;46103;52.076;113.488;2023-10-19T03:37:02;2.47;;;0.85;;
60241;SDS011;46103;52.076;113.488;2023-10-19T03:40:08;1.52;;;0.40;;
60241;SDS011;46103;52.076;113.488;2023-10-19T03:43:13;1.45;;;0.30;;
60241;SDS011;46103;52.076;113.488;2023-10-19T03:46:20;1.63;;;0.75;;
60241;SDS011;46103;52.076;113.488;2023-10-19T03:49:34;1.02;;;0.30;;
60241;SDS011;46103;52.076;113.488;2023-10-19T03:52:41;3.38;;;0.75;;
60241;SDS011;46103;52.076;113.488;2023-10-19T03:55:45;1.95;;;0.40;;
60241;SDS011;46103;52.076;113.488;2023-10-19T03:58:50;1.52;;;0.35;;
60241;SDS011;46103;52.076;113.488;2023-10-19T04:01:53;1.88;;;0.45;;
60241;SDS011;46103;52.076;113.488;2023-10-19T04:04:57;2.72;;;0.32;;
60241;SDS011;46103;52.076;113.488;2023-10-19T04:08:07;0.35;;;0.10;;
60241;SDS011;46103;52.076;113.488;2023-10-19T04:11:17;0.93;;;0.20;;
60241;SDS011;46103;52.076;113.488;2023-10-19T04:14:24;0.75;;;0.20;;
60241;SDS011;46103;52.076;113.488;2023-10-19T04:17:28;0.50;;;0.10;;
60241;SDS011;46103;52.076;113.488;2023-10-19T04:20:31;0.85;;;0.32;;
60241;SDS011;46103;52.076;113.488;2023-10-19T04:23:54;0.88;;;0.30;;
60241;SDS011;46103;52.076;113.488;2023-10-19T04:26:59;0.98;;;0.22;;
60241;SDS011;46103;52.076;113.488;2023-10-19T04:30:04;0.85;;;0.38;;
60241;SDS011;46103;52.076;113.488;2023-10-19T04:33:18;1.23;;;0.30;;
60241;SDS011;46103;52.076;113.488;2023-10-19T04:36:22;1.83;;;0.20;;
60241;SDS011;46103;52.076;113.488;2023-10-19T04:39:25;1.80;;;0.32;;
60241;SDS011;46103;52.076;113.488;2023-10-19T04:42:33;0.98;;;0.20;;
60241;SDS011;46103;52.076;113.488;2023-10-19T04:45:39;0.63;;;0.20;;
60241;SDS011;46103;52.076;113.488;2023-10-19T04:48:43;1.35;;;0.50;;
60241;SDS011;46103;52.076;113.488;2023-10-19T04:51:46;1.23;;;0.28;;
60241;SDS011;46103;52.076;113.488;2023-10-19T04:54:49;1.63;;;0.50;;
60241;SDS011;46103;52.076;113.488;2023-10-19T04:57:53;1.50;;;0.35;;
60241;SDS011;46103;52.076;113.488;2023-10-19T05:00:57;1.17;;;0.30;;
60241;SDS011;46103;52.076;113.488;2023-10-19T05:04:01;0.98;;;0.40;;
60241;SDS011;46103;52.076;113.488;2023-10-19T05:07:05;0.63;;;0.10;;
60241;SDS011;46103;52.076;113.488;2023-10-19T05:10:08;0.85;;;0.28;;
60241;SDS011;46103;52.076;113.488;2023-10-19T05:13:12;1.63;;;0.60;;
60241;SDS011;46103;52.076;113.488;2023-10-19T05:16:15;1.90;;;0.55;;
60241;SDS011;46103;52.076;113.488;2023-10-19T05:19:18;1.70;;;0.40;;
60241;SDS011;46103;52.076;113.488;2023-10-19T05:22:21;1.35;;;0.52;;
60241;SDS011;46103;52.076;113.488;2023-10-19T05:25:27;1.42;;;0.50;;
60241;SDS011;46103;52.076;113.488;2023-10-19T05:28:31;0.65;;;0.28;;
60241;SDS011;46103;52.076;113.488;2023-10-19T05:31:35;0.98;;;0.40;;
60241;SDS011;46103;52.076;113.488;2023-10-19T05:34:38;0.70;;;0.13;;
60241;SDS011;46103;52.076;113.488;2023-10-19T05:37:42;1.10;;;0.38;;
60241;SDS011;46103;52.076;113.488;2023-10-19T05:40:45;1.85;;;0.35;;
60241;SDS011;46103;52.076;113.488;2023-10-19T05:43:50;0.28;;;0.10;;
60241;SDS011;46103;52.076;113.488;2023-10-19T05:46:54;0.75;;;0.30;;
60241;SDS011;46103;52.076;113.488;2023-10-19T05:49:58;0.93;;;0.10;;
60241;SDS011;46103;52.076;113.488;2023-10-19T05:53:02;1.17;;;0.40;;
60241;SDS011;46103;52.076;113.488;2023-10-19T05:56:08;0.73;;;0.25;;
60241;SDS011;46103;52.076;113.488;2023-10-19T05:59:11;2.08;;;0.55;;
60241;SDS011;46103;52.076;113.488;2023-10-19T06:02:14;3.42;;;0.90;;
60241;SDS011;46103;52.076;113.488;2023-10-19T06:05:18;2.10;;;0.80;;
60241;SDS011;46103;52.076;113.488;2023-10-19T06:08:23;1.95;;;0.32;;
60241;SDS011;46103;52.076;113.488;2023-10-19T06:11:28;1.05;;;0.20;;
60241;SDS011;46103;52.076;113.488;2023-10-19T06:14:35;0.60;;;0.15;;
60241;SDS011;46103;52.076;113.488;2023-10-19T06:17:40;0.95;;;0.25;;
60241;SDS011;46103;52.076;113.488;2023-10-19T06:20:45;1.77;;;0.50;;
60241;SDS011;46103;52.076;113.488;2023-10-19T06:23:49;0.70;;;0.20;;
60241;SDS011;46103;52.076;113.488;2023-10-19T06:26:55;0.95;;;0.30;;
60241;SDS011;46103;52.076;113.488;2023-10-19T06:29:58;0.90;;;0.10;;
60241;SDS011;46103;52.076;113.488;2023-10-19T06:33:02;1.85;;;0.35;;
60241;SDS011;46103;52.076;113.488;2023-10-19T06:36:06;0.80;;;0.20;;
60241;SDS011;46103;52.076;113.488;2023-10-19T06:39:11;1.52;;;0.20;;
60241;SDS011;46103;52.076;113.488;2023-10-19T06:42:16;1.17;;;0.43;;
60241;SDS011;46103;52.076;113.488;2023-10-19T06:45:21;1.10;;;0.22;;
60241;SDS011;46103;52.076;113.488;2023-10-19T06:48:25;1.20;;;0.20;;
60241;SDS011;46103;52.076;113.488;2023-10-19T06:51:30;1.73;;;0.65;;
60241;SDS011;46103;52.076;113.488;2023-10-19T06:54:35;1.00;;;0.20;;
60241;SDS011;46103;52.076;113.488;2023-10-19T06:57:42;1.30;;;0.30;;
60241;SDS011;46103;52.076;113.488;2023-10-19T07:00:46;1.58;;;0.50;;
60241;SDS011;46103;52.076;113.488;2023-10-19T07:03:59;2.75;;;0.52;;
60241;SDS011;46103;52.076;113.488;2023-10-19T07:07:02;1.58;;;0.32;;
60241;SDS011;46103;52.076;113.488;2023-10-19T07:10:07;2.40;;;0.38;;
60241;SDS011;46103;52.076;113.488;2023-10-19T07:13:12;3.00;;;0.40;;
60241;SDS011;46103;52.076;113.488;2023-10-19T07:16:16;2.55;;;0.80;;
60241;SDS011;46103;52.076;113.488;2023-10-19T07:19:21;0.65;;;0.13;;
60241;SDS011;46103;52.076;113.488;2023-10-19T07:22:25;1.08;;;0.30;;
60241;SDS011;46103;52.076;113.488;2023-10-19T07:25:29;0.88;;;0.10;;
60241;SDS011;46103;52.076;113.488;2023-10-19T07:28:34;1.60;;;0.50;;
60241;SDS011;46103;52.076;113.488;2023-10-19T07:31:42;2.53;;;0.30;;
60241;SDS011;46103;52.076;113.488;2023-10-19T07:34:46;1.27;;;0.30;;
60241;SDS011;46103;52.076;113.488;2023-10-19T07:37:50;0.75;;;0.30;;
60241;SDS011;46103;52.076;113.488;2023-10-19T07:40:53;0.80;;;0.28;;
60241;SDS011;46103;52.076;113.488;2023-10-19T07:43:57;1.25;;;0.30;;
60241;SDS011;46103;52.076;113.488;2023-10-19T07:47:00;0.80;;;0.30;;
60241;SDS011;46103;52.076;113.488;2023-10-19T07:50:05;2.33;;;0.55;;
60241;SDS011;46103;52.076;113.488;2023-10-19T07:53:18;2.20;;;0.80;;
60241;SDS011;46103;52.076;113.488;2023-10-19T07:56:23;2.03;;;0.60;;
60241;SDS011;46103;52.076;113.488;2023-10-19T07:59:26;2.45;;;0.50;;
60241;SDS011;46103;52.076;113.488;2023-10-19T08:02:31;2.15;;;0.70;;
60241;SDS011;46103;52.076;113.488;2023-10-19T08:05:37;1.35;;;0.43;;
60241;SDS011;46103;52.076;113.488;2023-10-19T08:08:41;1.10;;;0.30;;
60241;SDS011;46103;52.076;113.488;2023-10-19T08:11:44;0.63;;;0.20;;
60241;SDS011;46103;52.076;113.488;2023-10-19T08:14:48;1.55;;;0.30;;
60241;SDS011;46103;52.076;113.488;2023-10-19T08:17:51;1.98;;;0.50;;
60241;SDS011;46103;52.076;113.488;2023-10-19T08:20:57;2.03;;;0.85;;
60241;SDS011;46103;52.076;113.488;2023-10-19T08:24:01;2.00;;;0.30;;
60241;SDS011;46103;52.076;113.488;2023-10-19T08:27:07;2.05;;;0.68;;
60241;SDS011;46103;52.076;113.488;2023-10-19T08:30:14;1.35;;;0.50;;
60241;SDS011;46103;52.076;113.488;2023-10-19T08:33:23;4.47;;;0.98;;
60241;SDS011;46103;52.076;113.488;2023-10-19T08:36:28;5.40;;;0.90;;
60241;SDS011;46103;52.076;113.488;2023-10-19T08:39:33;3.33;;;1.20;;
60241;SDS011;46103;52.076;113.488;2023-10-19T08:42:39;2.35;;;0.65;;
60241;SDS011;46103;52.076;113.488;2023-10-19T08:45:44;2.85;;;1.00;;
60241;SDS011;46103;52.076;113.488;2023-10-19T08:48:49;5.80;;;1.98;;
60241;SDS011;46103;52.076;113.488;2023-10-19T08:51:53;3.75;;;1.45;;
60241;SDS011;46103;52.076;113.488;2023-10-19T08:54:57;7.07;;;2.38;;
60241;SDS011;46103;52.076;113.488;2023-10-19T08:58:02;6.90;;;2.22;;
60241;SDS011;46103;52.076;113.488;2023-10-19T09:01:08;4.13;;;2.50;;
60241;SDS011;46103;52.076;113.488;2023-10-19T09:04:13;4.82;;;2.00;;
60241;SDS011;46103;52.076;113.488;2023-10-19T09:07:17;4.63;;;2.05;;
60241;SDS011;46103;52.076;113.488;2023-10-19T09:10:24;5.72;;;2.65;;
60241;SDS011;46103;52.076;113.488;2023-10-19T09:13:31;4.32;;;2.88;;
60241;SDS011;46103;52.076;113.488;2023-10-19T09:16:53;3.63;;;1.95;;
60241;SDS011;46103;52.076;113.488;2023-10-19T09:20:00;7.35;;;2.70;;
60241;SDS011;46103;52.076;113.488;2023-10-19T09:23:12;4.70;;;2.85;;
60241;SDS011;46103;52.076;113.488;2023-10-19T09:26:16;8.50;;;3.25;;
60241;SDS011;46103;52.076;113.488;2023-10-19T09:29:21;6.35;;;3.33;;
60241;SDS011;46103;52.076;113.488;2023-10-19T09:32:31;6.45;;;3.40;;
60241;SDS011;46103;52.076;113.488;2023-10-19T09:35:35;5.28;;;2.72;;
60241;SDS011;46103;52.076;113.488;2023-10-19T09:38:46;5.30;;;2.95;;
60241;SDS011;46103;52.076;113.488;2023-10-19T09:41:54;4.35;;;2.53;;
60241;SDS011;46103;52.076;113.488;2023-10-19T09:45:01;5.10;;;2.92;;
60241;SDS011;46103;52.076;113.488;2023-10-19T09:48:09;5.75;;;2.90;;
60241;SDS011;46103;52.076;113.488;2023-10-19T09:51:20;3.58;;;2.33;;
60241;SDS011;46103;52.076;113.488;2023-10-19T09:54:27;5.13;;;2.58;;
60241;SDS011;46103;52.076;113.488;2023-10-19T09:57:53;3.47;;;1.95;;
60241;SDS011;46103;52.076;113.488;2023-10-19T10:01:19;5.00;;;2.35;;
60241;SDS011;46103;52.076;113.488;2023-10-19T10:04:30;5.82;;;2.80;;
60241;SDS011;46103;52.076;113.488;2023-10-19T10:07:36;4.45;;;1.58;;
60241;SDS011;46103;52.076;113.488;2023-10-19T10:10:47;4.53;;;2.10;;
60241;SDS011;46103;52.076;113.488;2023-10-19T10:13:53;5.47;;;2.40;;
60241;SDS011;46103;52.076;113.488;2023-10-19T10:17:01;6.05;;;3.10;;
60241;SDS011;46103;52.076;113.488;2023-10-19T10:37:01;5.65;;;2.97;;
60241;SDS011;46103;52.076;113.488;2023-10-19T10:40:11;6.38;;;3.47;;
60241;SDS011;46103;52.076;113.488;2023-10-19T10:43:18;5.15;;;2.53;;
60241;SDS011;46103;52.076;113.488;2023-10-19T10:46:22;7.13;;;4.20;;
60241;SDS011;46103;52.076;113.488;2023-10-19T10:49:28;13.05;;;6.07;;
60241;SDS011;46103;52.076;113.488;2023-10-19T10:52:34;10.68;;;4.97;;
60241;SDS011;46103;52.076;113.488;2023-10-19T10:55:40;13.00;;;6.35;;
60241;SDS011;46103;52.076;113.488;2023-10-19T10:58:48;12.70;;;5.53;;
60241;SDS011;46103;52.076;113.488;2023-10-19T11:02:08;11.55;;;5.10;;
60241;SDS011;46103;52.076;113.488;2023-10-19T11:05:24;8.50;;;4.72;;
60241;SDS011;46103;52.076;113.488;2023-10-19T11:08:29;8.45;;;3.95;;
60241;SDS011;46103;52.076;113.488;2023-10-19T11:11:37;11.63;;;5.47;;
60241;SDS011;46103;52.076;113.488;2023-10-19T11:14:56;10.85;;;5.22;;
60241;SDS011;46103;52.076;113.488;2023-10-19T11:18:04;9.93;;;4.18;;
60241;SDS011;46103;52.076;113.488;2023-10-19T11:21:11;10.00;;;5.55;;
60241;SDS011;46103;52.076;113.488;2023-10-19T11:24:24;5.25;;;3.05;;
60241;SDS011;46103;52.076;113.488;2023-10-19T11:27:29;7.97;;;3.53;;
60241;SDS011;46103;52.076;113.488;2023-10-19T11:30:33;9.25;;;4.10;;
60241;SDS011;46103;52.076;113.488;2023-10-19T11:33:38;7.53;;;3.42;;
60241;SDS011;46103;52.076;113.488;2023-10-19T11:36:44;10.00;;;5.22;;
60241;SDS011;46103;52.076;113.488;2023-10-19T11:39:49;9.13;;;4.25;;
60241;SDS011;46103;52.076;113.488;2023-10-19T11:42:54;7.18;;;2.97;;
60241;SDS011;46103;52.076;113.488;2023-10-19T11:46:05;3.83;;;2.00;;
60241;SDS011;46103;52.076;113.488;2023-10-19T11:49:13;3.13;;;1.38;;
60241;SDS011;46103;52.076;113.488;2023-10-19T11:52:32;4.43;;;1.50;;
60241;SDS011;46103;52.076;113.488;2023-10-19T11:55:36;4.72;;;2.42;;
60241;SDS011;46103;52.076;113.488;2023-10-19T11:58:41;3.22;;;1.40;;
60241;SDS011;46103;52.076;113.488;2023-10-19T12:01:48;3.22;;;1.10;;
60241;SDS011;46103;52.076;113.488;2023-10-19T12:04:54;4.93;;;1.63;;
60241;SDS011;46103;52.076;113.488;2023-10-19T12:08:03;5.50;;;2.55;;
60241;SDS011;46103;52.076;113.488;2023-10-19T12:11:28;5.18;;;1.98;;
60241;SDS011;46103;52.076;113.488;2023-10-19T12:14:33;5.10;;;2.10;;
60241;SDS011;46103;52.076;113.488;2023-10-19T12:17:38;12.10;;;4.95;;
60241;SDS011;46103;52.076;113.488;2023-10-19T12:20:44;11.15;;;2.90;;
60241;SDS011;46103;52.076;113.488;2023-10-19T12:23:51;6.35;;;2.88;;
60241;SDS011;46103;52.076;113.488;2023-10-19T12:27:13;7.68;;;3.40;;
60241;SDS011;46103;52.076;113.488;2023-10-19T12:30:18;6.05;;;2.20;;
60241;SDS011;46103;52.076;113.488;2023-10-19T12:33:25;6.75;;;3.00;;
60241;SDS011;46103;52.076;113.488;2023-10-19T12:36:30;3.28;;;1.10;;
60241;SDS011;46103;52.076;113.488;2023-10-19T12:39:36;5.00;;;1.58;;
60241;SDS011;46103;52.076;113.488;2023-10-19T12:42:53;5.93;;;1.70;;
60241;SDS011;46103;52.076;113.488;2023-10-19T12:45:58;6.13;;;1.70;;
60241;SDS011;46103;52.076;113.488;2023-10-19T12:49:06;8.30;;;2.78;;
60241;SDS011;46103;52.076;113.488;2023-10-19T12:52:41;4.72;;;1.98;;
60241;SDS011;46103;52.076;113.488;2023-10-19T12:56:27;4.45;;;1.65;;
60241;SDS011;46103;52.076;113.488;2023-10-19T12:59:33;5.05;;;2.58;;
60241;SDS011;46103;52.076;113.488;2023-10-19T13:06:04;4.95;;;2.03;;
60241;SDS011;46103;52.076;113.488;2023-10-19T13:09:12;6.03;;;2.33;;
60241;SDS011;46103;52.076;113.488;2023-10-19T13:12:22;4.72;;;1.67;;
60241;SDS011;46103;52.076;113.488;2023-10-19T13:15:27;4.20;;;1.40;;
60241;SDS011;46103;52.076;113.488;2023-10-19T13:18:36;7.10;;;2.50;;
60241;SDS011;46103;52.076;113.488;2023-10-19T13:21:43;6.63;;;2.15;;
60241;SDS011;46103;52.076;113.488;2023-10-19T13:24:52;3.95;;;1.20;;
60241;SDS011;46103;52.076;113.488;2023-10-19T13:27:59;2.50;;;1.10;;
60241;SDS011;46103;52.076;113.488;2023-10-19T13:31:08;3.88;;;1.20;;
60241;SDS011;46103;52.076;113.488;2023-10-19T13:34:13;3.80;;;1.45;;
60241;SDS011;46103;52.076;113.488;2023-10-19T13:37:19;5.55;;;1.73;;
60241;SDS011;46103;52.076;113.488;2023-10-19T13:40:35;5.18;;;1.50;;
60241;SDS011;46103;52.076;113.488;2023-10-19T13:43:41;5.63;;;1.92;;
60241;SDS011;46103;52.076;113.488;2023-10-19T13:46:46;6.10;;;2.20;;
60241;SDS011;46103;52.076;113.488;2023-10-19T13:49:50;5.38;;;2.00;;
60241;SDS011;46103;52.076;113.488;2023-10-19T13:52:56;4.50;;;1.60;;
60241;SDS011;46103;52.076;113.488;2023-10-19T13:56:01;6.68;;;1.88;;
60241;SDS011;46103;52.076;113.488;2023-10-19T13:59:06;3.90;;;1.58;;
60241;SDS011;46103;52.076;113.488;2023-10-19T14:02:13;5.40;;;2.28;;
60241;SDS011;46103;52.076;113.488;2023-10-19T14:05:23;4.43;;;1.60;;
60241;SDS011;46103;52.076;113.488;2023-10-19T14:08:28;4.93;;;1.65;;
60241;SDS011;46103;52.076;113.488;2023-10-19T14:11:34;2.45;;;0.70;;
60241;SDS011;46103;52.076;113.488;2023-10-19T14:14:41;4.40;;;1.55;;
60241;SDS011;46103;52.076;113.488;2023-10-19T14:17:44;2.50;;;1.08;;
60241;SDS011;46103;52.076;113.488;2023-10-19T14:20:49;2.22;;;0.77;;
60241;SDS011;46103;52.076;113.488;2023-10-19T14:23:54;3.95;;;1.17;;
60241;SDS011;46103;52.076;113.488;2023-10-19T14:26:59;2.30;;;1.02;;
60241;SDS011;46103;52.076;113.488;2023-10-19T14:30:11;2.83;;;0.90;;
60241;SDS011;46103;52.076;113.488;2023-10-19T14:33:16;2.80;;;1.10;;
60241;SDS011;46103;52.076;113.488;2023-10-19T14:36:22;5.45;;;2.30;;
60241;SDS011;46103;52.076;113.488;2023-10-19T14:39:26;7.90;;;2.45;;
60241;SDS011;46103;52.076;113.488;2023-10-19T14:42:30;6.25;;;2.58;;
60241;SDS011;46103;52.076;113.488;2023-10-19T14:45:43;7.00;;;2.55;;
60241;SDS011;46103;52.076;113.488;2023-10-19T14:48:46;3.42;;;1.70;;
60241;SDS011;46103;52.076;113.488;2023-10-19T14:51:50;5.20;;;2.00;;
60241;SDS011;46103;52.076;113.488;2023-10-19T14:54:54;7.07;;;2.50;;
60241;SDS011;46103;52.076;113.488;2023-10-19T14:58:00;5.53;;;2.67;;
60241;SDS011;46103;52.076;113.488;2023-10-19T15:01:04;7.40;;;3.13;;
60241;SDS011;46103;52.076;113.488;2023-10-19T15:04:09;5.63;;;1.95;;
60241;SDS011;46103;52.076;113.488;2023-10-19T15:07:16;6.13;;;2.30;;
60241;SDS011;46103;52.076;113.488;2023-10-19T15:10:25;6.57;;;2.15;;
60241;SDS011;46103;52.076;113.488;2023-10-19T15:13:34;8.07;;;2.60;;
60241;SDS011;46103;52.076;113.488;2023-10-19T15:16:37;4.75;;;1.55;;
60241;SDS011;46103;52.076;113.488;2023-10-19T15:19:41;8.10;;;3.63;;
60241;SDS011;46103;52.076;113.488;2023-10-19T15:22:46;8.13;;;2.97;;
60241;SDS011;46103;52.076;113.488;2023-10-19T15:25:50;7.43;;;2.72;;
60241;SDS011;46103;52.076;113.488;2023-10-19T15:28:54;6.00;;;2.35;;
60241;SDS011;46103;52.076;113.488;2023-10-19T15:31:58;5.68;;;2.38;;
60241;SDS011;46103;52.076;113.488;2023-10-19T15:35:02;7.32;;;2.88;;
60241;SDS011;46103;52.076;113.488;2023-10-19T15:38:06;7.60;;;3.35;;
60241;SDS011;46103;52.076;113.488;2023-10-19T15:41:11;7.40;;;2.80;;
60241;SDS011;46103;52.076;113.488;2023-10-19T15:44:18;6.97;;;2.00;;
60241;SDS011;46103;52.076;113.488;2023-10-19T15:47:22;5.80;;;2.28;;
60241;SDS011;46103;52.076;113.488;2023-10-19T15:50:27;2.83;;;0.98;;
60241;SDS011;46103;52.076;113.488;2023-10-19T15:53:34;4.90;;;1.85;;
60241;SDS011;46103;52.076;113.488;2023-10-19T15:56:37;4.55;;;1.88;;
60241;SDS011;46103;52.076;113.488;2023-10-19T15:59:41;5.63;;;2.25;;
60241;SDS011;46103;52.076;113.488;2023-10-19T16:02:46;5.95;;;2.78;;
60241;SDS011;46103;52.076;113.488;2023-10-19T16:05:50;5.88;;;2.25;;
60241;SDS011;46103;52.076;113.488;2023-10-19T16:08:53;3.40;;;1.13;;
60241;SDS011;46103;52.076;113.488;2023-10-19T16:11:57;3.58;;;1.60;;
60241;SDS011;46103;52.076;113.488;2023-10-19T16:15:01;4.53;;;1.75;;
60241;SDS011;46103;52.076;113.488;2023-10-19T16:18:04;3.35;;;1.38;;
60241;SDS011;46103;52.076;113.488;2023-10-19T16:21:09;3.83;;;2.30;;
60241;SDS011;46103;52.076;113.488;2023-10-19T16:24:13;3.08;;;1.25;;
60241;SDS011;46103;52.076;113.488;2023-10-19T16:27:17;4.20;;;1.40;;
60241;SDS011;46103;52.076;113.488;2023-10-19T16:30:21;3.10;;;1.02;;
60241;SDS011;46103;52.076;113.488;2023-10-19T16:33:25;5.60;;;1.85;;
60241;SDS011;46103;52.076;113.488;2023-10-19T16:36:30;4.80;;;1.83;;
60241;SDS011;46103;52.076;113.488;2023-10-19T16:39:33;3.83;;;1.48;;
60241;SDS011;46103;52.076;113.488;2023-10-19T16:42:40;4.35;;;1.58;;
60241;SDS011;46103;52.076;113.488;2023-10-19T16:45:43;3.63;;;1.20;;
60241;SDS011;46103;52.076;113.488;2023-10-19T16:48:47;4.78;;;1.27;;
60241;SDS011;46103;52.076;113.488;2023-10-19T16:51:50;5.88;;;1.55;;
60241;SDS011;46103;52.076;113.488;2023-10-19T16:54:54;11.38;;;3.08;;
60241;SDS011;46103;52.076;113.488;2023-10-19T16:57:57;8.15;;;2.15;;
60241;SDS011;46103;52.076;113.488;2023-10-19T17:01:05;6.93;;;2.10;;
60241;SDS011;46103;52.076;113.488;2023-10-19T17:04:12;7.40;;;2.53;;
60241;SDS011;46103;52.076;113.488;2023-10-19T17:07:19;6.88;;;2.63;;
60241;SDS011;46103;52.076;113.488;2023-10-19T17:10:22;7.07;;;2.50;;
60241;SDS011;46103;52.076;113.488;2023-10-19T17:13:25;5.10;;;1.70;;
60241;SDS011;46103;52.076;113.488;2023-10-19T17:16:29;5.03;;;1.58;;
60241;SDS011;46103;52.076;113.488;2023-10-19T17:19:34;5.32;;;1.65;;
60241;SDS011;46103;52.076;113.488;2023-10-19T17:22:37;4.70;;;2.03;;
60241;SDS011;46103;52.076;113.488;2023-10-19T17:25:42;3.15;;;0.90;;
60241;SDS011;46103;52.076;113.488;2023-10-19T17:28:47;4.78;;;2.00;;
60241;SDS011;46103;52.076;113.488;2023-10-19T17:31:53;4.35;;;1.80;;
60241;SDS011;46103;52.076;113.488;2023-10-19T17:34:58;4.63;;;1.55;;
60241;SDS011;46103;52.076;113.488;2023-10-19T17:38:05;3.08;;;1.00;;
60241;SDS011;46103;52.076;113.488;2023-10-19T17:41:12;6.25;;;1.67;;
60241;SDS011;46103;52.076;113.488;2023-10-19T17:44:15;4.43;;;1.95;;
60241;SDS011;46103;52.076;113.488;2023-10-19T17:47:21;4.85;;;2.20;;
60241;SDS011;46103;52.076;113.488;2023-10-19T17:50:25;4.57;;;2.22;;
60241;SDS011;46103;52.076;113.488;2023-10-19T17:53:28;2.65;;;0.98;;
60241;SDS011;46103;52.076;113.488;2023-10-19T17:56:33;5.10;;;1.88;;
60241;SDS011;46103;52.076;113.488;2023-10-19T17:59:37;4.05;;;0.82;;
60241;SDS011;46103;52.076;113.488;2023-10-19T18:02:41;3.13;;;1.48;;
60241;SDS011;46103;52.076;113.488;2023-10-19T18:05:45;6.13;;;1.70;;
60241;SDS011;46103;52.076;113.488;2023-10-19T18:08:51;4.18;;;1.25;;
60241;SDS011;46103;52.076;113.488;2023-10-19T18:11:55;4.85;;;1.38;;
60241;SDS011;46103;52.076;113.488;2023-10-19T18:14:59;2.50;;;0.90;;
60241;SDS011;46103;52.076;113.488;2023-10-19T18:18:03;5.28;;;1.35;;
60241;SDS011;46103;52.076;113.488;2023-10-19T18:21:09;5.90;;;1.35;;
60241;SDS011;46103;52.076;113.488;2023-10-19T18:24:15;7.55;;;1.90;;
60241;SDS011;46103;52.076;113.488;2023-10-19T18:27:19;6.90;;;1.45;;
60241;SDS011;46103;52.076;113.488;2023-10-19T18:30:25;1.52;;;0.47;;
60241;SDS011;46103;52.076;113.488;2023-10-19T18:33:30;4.20;;;1.05;;
60241;SDS011;46103;52.076;113.488;2023-10-19T18:36:35;3.45;;;1.00;;